createdAt,value
2023-03-13T00:02:42.301Z,18.33
2023-03-13T00:07:48.535Z,18.22
2023-03-13T00:12:54.800Z,19.84
2023-03-13T00:18:01.014Z,22.46
2023-03-13T00:23:07.710Z,20.24
2023-03-13T00:28:13.977Z,23.38
2023-03-13T00:33:20.176Z,22.83
2023-03-13T00:38:26.455Z,16.83
2023-03-13T00:43:32.565Z,22.88
2023-03-13T00:48:38.744Z,18.32
2023-03-13T00:53:44.815Z,23.86
2023-03-13T00:58:51.008Z,21.31
2023-03-13T01:03:57.142Z,20.51
2023-03-13T01:09:03.485Z,17.42
2023-03-13T01:14:09.572Z,20.68
2023-03-13T01:19:15.784Z,16.64
2023-03-13T01:24:21.866Z,20.64
2023-03-13T01:29:31.208Z,24.00
2023-03-13T01:34:37.386Z,16.11
2023-03-13T01:39:43.702Z,21.41
2023-03-13T01:44:49.768Z,19.50
2023-03-13T01:49:56.053Z,14.64
2023-03-13T01:55:02.201Z,18.45
2023-03-13T02:00:08.391Z,18.63
2023-03-13T02:05:14.592Z,16.90
2023-03-13T02:10:20.839Z,19.93
2023-03-13T02:15:26.969Z,15.35
2023-03-13T02:20:33.259Z,17.78
2023-03-13T02:25:39.362Z,16.48
2023-03-13T02:30:45.626Z,18.59
2023-03-13T02:35:51.785Z,14.70
2023-03-13T02:40:57.980Z,15.83
2023-03-13T02:46:04.123Z,16.85
2023-03-13T02:51:10.378Z,16.48
2023-03-13T02:56:16.582Z,16.76
2023-03-13T03:01:22.846Z,17.67
2023-03-13T03:06:29.048Z,17.03
2023-03-13T03:11:35.314Z,19.36
2023-03-13T03:16:41.502Z,16.28
2023-03-13T03:21:47.668Z,12.87
2023-03-13T03:26:53.763Z,18.57
2023-03-13T03:32:00.050Z,17.67
2023-03-13T03:37:06.168Z,20.58
2023-03-13T03:42:12.420Z,15.70
2023-03-13T03:47:18.566Z,15.31
2023-03-13T03:52:24.777Z,19.53
2023-03-13T03:57:30.887Z,15.94
2023-03-13T04:02:37.245Z,17.60
2023-03-13T04:07:43.256Z,18.00
2023-03-13T04:12:49.477Z,20.76
2023-03-13T04:17:55.750Z,16.72
2023-03-13T04:23:02.003Z,16.03
2023-03-13T04:28:08.067Z,18.69
2023-03-13T04:33:14.356Z,14.36
2023-03-13T04:38:20.423Z,16.96
2023-03-13T04:43:26.692Z,12.48
2023-03-13T04:48:32.815Z,12.30
2023-03-13T04:53:39.341Z,10.43
2023-03-13T04:58:47.031Z,11.04
2023-03-13T05:03:51.309Z,10.31
2023-03-13T05:08:57.453Z,8.49
2023-03-13T05:14:03.758Z,9.40
2023-03-13T05:19:10.020Z,10.23
2023-03-13T05:24:16.288Z,7.40
2023-03-13T05:29:22.511Z,8.97
2023-03-13T05:34:28.678Z,8.26
2023-03-13T05:39:34.863Z,8.07
2023-03-13T05:44:41.141Z,7.74
2023-03-13T05:45:55.551Z,9.80
2023-03-13T05:51:01.642Z,7.83
2023-03-13T05:56:07.943Z,8.30
2023-03-13T06:01:14.090Z,6.96
2023-03-13T06:06:20.295Z,8.63
2023-03-13T06:11:26.445Z,8.46
2023-03-13T06:16:33.092Z,9.35
2023-03-13T06:21:39.072Z,8.41
2023-03-13T06:26:45.376Z,7.06
2023-03-13T06:31:51.743Z,14.04
2023-03-13T06:36:57.736Z,13.11
2023-03-13T06:42:03.939Z,10.91
2023-03-13T06:47:10.217Z,8.59
2023-03-13T06:52:16.273Z,10.20
2023-03-13T06:57:22.446Z,9.14
2023-03-13T07:02:28.659Z,7.26
2023-03-13T07:07:34.876Z,11.06
2023-03-13T07:12:41.044Z,9.55
2023-03-13T07:17:47.266Z,9.54
2023-03-13T07:22:53.397Z,13.01
2023-03-13T07:27:59.569Z,11.41
2023-03-13T07:33:05.856Z,9.86
2023-03-13T07:38:11.916Z,13.65
2023-03-13T07:43:18.051Z,14.80
2023-03-13T07:48:24.261Z,15.50
2023-03-13T07:53:30.393Z,16.59
2023-03-13T07:58:36.645Z,15.65
2023-03-13T08:03:45.316Z,20.85
2023-03-13T08:08:51.493Z,18.04
2023-03-13T08:13:58.030Z,16.89
2023-03-13T08:19:04.553Z,17.55
2023-03-13T08:24:10.673Z,19.77
2023-03-13T08:29:17.444Z,20.38
2023-03-13T08:34:23.761Z,20.34
2023-03-13T08:39:29.970Z,24.89
2023-03-13T08:44:36.810Z,18.14
2023-03-13T08:49:43.011Z,16.48
2023-03-13T08:54:49.116Z,20.13
2023-03-13T08:59:55.798Z,16.73
2023-03-13T09:05:02.323Z,16.94
2023-03-13T09:10:08.890Z,14.58
2023-03-13T09:15:14.970Z,17.05
2023-03-13T09:20:21.258Z,13.81
2023-03-13T09:25:27.338Z,12.43
2023-03-13T09:30:33.608Z,11.83
2023-03-13T09:35:39.750Z,13.07
2023-03-13T09:40:59.660Z,12.20
2023-03-13T09:45:51.574Z,12.50
2023-03-13T09:50:57.780Z,11.27
2023-03-13T09:56:03.836Z,9.82
2023-03-13T10:01:10.267Z,10.23
2023-03-13T10:06:16.269Z,7.32
2023-03-13T10:11:22.526Z,8.03
2023-03-13T10:16:28.673Z,7.18
2023-03-13T10:21:34.880Z,6.77
2023-03-13T10:26:41.044Z,5.17
2023-03-13T10:31:47.267Z,7.27
2023-03-13T10:36:53.323Z,5.46
2023-03-13T10:41:59.667Z,4.16
2023-03-13T10:47:06.090Z,6.90
2023-03-13T10:52:12.198Z,4.06
2023-03-13T10:57:18.324Z,3.12
2023-03-13T11:02:24.502Z,3.66
2023-03-13T11:07:30.582Z,3.85
2023-03-13T11:12:36.779Z,3.39
2023-03-13T11:17:42.830Z,3.33
2023-03-13T11:22:49.044Z,5.12
2023-03-13T11:27:55.197Z,3.94
2023-03-13T11:33:01.472Z,3.85
2023-03-13T11:38:08.107Z,5.75
2023-03-13T11:43:24.556Z,8.23
2023-03-13T11:48:18.804Z,4.92
2023-03-13T11:53:25.266Z,6.62
2023-03-13T11:58:31.281Z,5.34
2023-03-13T12:03:37.480Z,4.97
2023-03-13T12:08:43.557Z,7.67
2023-03-13T12:13:49.778Z,4.83
2023-03-13T12:18:55.852Z,3.53
2023-03-13T12:24:02.272Z,3.47
2023-03-13T12:29:08.325Z,4.82
2023-03-13T12:34:14.430Z,4.60
2023-03-13T12:39:20.543Z,4.88
2023-03-13T12:44:26.817Z,4.17
2023-03-13T12:49:33.016Z,3.15
2023-03-13T12:54:39.259Z,4.84
2023-03-13T12:59:45.320Z,4.64
2023-03-13T13:04:51.564Z,5.37
2023-03-13T13:09:57.648Z,7.43
2023-03-13T13:15:03.916Z,4.13
2023-03-13T13:20:09.989Z,4.17
2023-03-13T13:25:16.140Z,4.90
2023-03-13T13:30:22.291Z,3.98
2023-03-13T13:35:28.577Z,6.23
2023-03-13T13:40:34.711Z,5.15
2023-03-13T13:45:40.907Z,3.11
2023-03-13T13:50:46.978Z,3.84
2023-03-13T13:55:53.237Z,4.95
2023-03-13T14:00:59.338Z,5.26
2023-03-13T14:06:05.656Z,4.14
2023-03-13T14:11:11.721Z,4.65
2023-03-13T14:16:17.998Z,4.54
2023-03-13T14:21:24.166Z,3.13
2023-03-13T14:26:30.358Z,3.85
2023-03-13T14:31:36.579Z,3.34
2023-03-13T14:36:42.729Z,3.28
2023-03-13T14:41:48.909Z,4.17
2023-03-13T14:46:55.324Z,1.97
2023-03-13T14:52:01.449Z,3.35
2023-03-13T14:57:07.592Z,3.04
2023-03-13T15:02:13.633Z,3.83
2023-03-13T15:07:19.989Z,4.99
2023-03-13T15:12:26.509Z,6.35
2023-03-13T15:17:32.671Z,6.41
2023-03-13T15:22:38.752Z,7.20
2023-03-13T15:27:45.054Z,5.32
2023-03-13T15:32:51.361Z,6.29
2023-03-13T15:37:57.396Z,3.22
2023-03-13T15:43:03.462Z,4.39
2023-03-13T15:48:09.774Z,5.79
2023-03-13T15:53:15.851Z,6.71
2023-03-13T15:58:22.063Z,4.97
2023-03-13T16:03:28.172Z,3.38
2023-03-13T16:08:36.046Z,4.06
2023-03-13T16:13:40.058Z,4.81
2023-03-13T16:18:46.451Z,4.21
2023-03-13T16:23:52.516Z,5.29
2023-03-13T16:28:58.916Z,4.14
2023-03-13T16:34:04.972Z,5.71
2023-03-13T16:39:11.116Z,4.39
2023-03-13T16:44:17.333Z,5.82
2023-03-13T16:49:23.489Z,7.59
2023-03-13T16:54:29.566Z,6.87
2023-03-13T16:59:35.754Z,10.80
2023-03-13T17:04:44.454Z,9.78
2023-03-13T17:09:47.708Z,9.58
2023-03-13T17:14:53.795Z,8.68
2023-03-13T17:20:00.049Z,7.53
2023-03-13T17:25:06.104Z,11.18
2023-03-13T17:30:12.421Z,10.83
2023-03-13T17:35:19.123Z,8.21
2023-03-13T17:40:26.061Z,11.96
2023-03-13T17:45:32.741Z,7.45
2023-03-13T17:50:39.703Z,11.23
2023-03-13T17:55:46.560Z,10.71
2023-03-13T18:00:53.447Z,14.51
2023-03-13T18:06:00.104Z,12.75
2023-03-13T18:11:06.986Z,16.05
2023-03-13T18:16:13.752Z,12.48
2023-03-13T18:21:20.581Z,13.47
2023-03-13T18:26:27.321Z,16.14
2023-03-13T18:31:35.228Z,14.38
2023-03-13T18:36:41.895Z,15.94
2023-03-13T18:41:48.686Z,16.59
2023-03-13T18:46:55.311Z,14.22
2023-03-13T18:52:02.962Z,17.57
2023-03-13T18:57:09.774Z,15.03
2023-03-13T19:02:16.589Z,14.01
2023-03-13T19:07:23.356Z,17.87
2023-03-13T19:12:29.802Z,12.58
2023-03-13T19:17:36.479Z,15.73
2023-03-13T19:22:43.912Z,15.06
2023-03-13T19:27:51.292Z,12.08
2023-03-13T19:32:58.015Z,19.65
2023-03-13T19:38:04.547Z,15.76
2023-03-13T19:43:10.787Z,14.10
2023-03-13T19:48:16.964Z,16.93
2023-03-13T19:53:23.215Z,16.77
2023-03-13T19:58:29.262Z,14.47
2023-03-13T20:03:35.517Z,15.94
2023-03-13T20:08:41.675Z,17.89
2023-03-13T20:13:51.002Z,15.17
2023-03-13T20:18:57.856Z,14.33
2023-03-13T20:24:04.177Z,15.07
2023-03-13T20:29:10.331Z,14.94
2023-03-13T20:34:17.232Z,13.65
2023-03-13T20:39:23.526Z,15.91
2023-03-13T20:44:29.823Z,16.64
2023-03-13T20:49:36.012Z,19.33
2023-03-13T20:54:42.254Z,17.64
2023-03-13T20:59:48.508Z,16.72
2023-03-13T21:04:54.816Z,15.01
2023-03-13T21:10:00.842Z,20.30
2023-03-13T21:15:07.629Z,16.70
2023-03-13T21:20:14.042Z,12.76
2023-03-13T21:25:20.250Z,14.37
2023-03-13T21:30:26.358Z,14.20
2023-03-13T21:35:32.624Z,16.11
2023-03-13T21:40:38.741Z,16.88
2023-03-13T21:45:45.076Z,18.02
2023-03-13T21:50:51.286Z,17.55
2023-03-13T21:55:57.435Z,19.13
2023-03-13T22:01:03.679Z,19.58
2023-03-13T22:06:09.920Z,19.69
2023-03-13T22:11:16.064Z,14.80
2023-03-13T22:16:22.327Z,19.70
2023-03-13T22:21:28.498Z,17.72
2023-03-13T22:26:34.744Z,19.49
2023-03-13T22:31:40.860Z,19.05
2023-03-13T22:36:47.100Z,20.09
2023-03-13T22:41:53.223Z,18.73
2023-03-13T22:46:59.620Z,19.84
2023-03-13T22:52:05.768Z,21.61
2023-03-13T22:57:11.979Z,18.76
2023-03-13T23:02:18.066Z,21.89
2023-03-13T23:07:24.356Z,19.53
2023-03-13T23:12:30.447Z,21.76
2023-03-13T23:17:36.647Z,22.01
2023-03-13T23:22:42.868Z,20.38
2023-03-13T23:27:49.109Z,22.38
2023-03-13T23:32:55.173Z,19.45
2023-03-13T23:38:01.362Z,20.62
2023-03-13T23:43:08.219Z,21.37
2023-03-13T23:48:14.474Z,20.65
2023-03-13T23:53:20.557Z,16.25
2023-03-13T23:58:26.743Z,19.29
